Myrtle Grove, Louisiana
Current Conditions -  °F | °C
As of 11:55 AM on Wednesday 28 Jan 2015 (Local Time) from KNBG Reporting Station
Clear Clear  
Wind Chill: 63°   Ceiling: Unl
Heat Index: 63°   Visibility: 10mi
Dew Point: 40°   Wind: 3mph
Humidity: 43%   Direction: 100°E
Pressure: 30.28"   Gusts: NA
Location:  29.4927°N, 89.8165°W
Report Text: KNBG 281755Z 10003KT 10SM CLR 17/04 A3028 RMK AO2 SLP254 T01720044 10172 20039 50000 $
Loading
Personal Weather Stations






























Interactive Weather Map New forecast layout! Learn more

10-Day Weather Forecast

Advertisements
Track Severe Weather on mobile